Time;durP1;ratioP1;P1;durP2;ratioP2;P2;SDS_P1;SDS_P2;PMS_P1;PMS_P2;Temp;Humidity;BMP_temperature;BMP_pressure;BME280_temperature;BME280_humidity;BME280_pressure;Samples;Min_cycle;Max_cycle;Signal;HPM_P1;HPM_P2
2023/06/15 00:01:00;;;;;;;1999.90;999.90;;;;;;;;;;4922108;29;20213;-73
2023/06/15 00:03:45;;;;;;;1999.90;999.90;;;;;;;;;;4934563;29;20355;-74
2023/06/15 00:06:32;;;;;;;1999.90;999.90;;;;;;;;;;4926802;29;20575;-73
2023/06/15 00:09:16;;;;;;;1999.90;999.90;;;;;;;;;;4914376;29;20237;-72
2023/06/15 00:12:02;;;;;;;1999.90;999.90;;;;;;;;;;4914053;29;20647;-70
2023/06/15 00:14:47;;;;;;;1999.90;999.90;;;;;;;;;;4908712;29;20277;-72
2023/06/15 00:17:32;;;;;;;1999.90;999.90;;;;;;;;;;4912495;29;20228;-72
2023/06/15 00:20:17;;;;;;;1999.90;999.90;;;;;;;;;;4910909;29;20373;-72
2023/06/15 00:23:04;;;;;;;1999.90;999.90;;;;;;;;;;4909764;29;20255;-73
2023/06/15 00:25:49;;;;;;;1999.90;999.90;;;;;;;;;;4916197;29;20224;-73
2023/06/15 00:28:34;;;;;;;1999.90;999.90;;;;;;;;;;4923936;29;20226;-74
2023/06/15 00:31:19;;;;;;;1999.90;999.90;;;;;;;;;;4911966;29;20301;-73
2023/06/15 00:34:04;;;;;;;1999.90;999.90;;;;;;;;;;4915851;29;20215;-73
2023/06/15 00:36:49;;;;;;;1999.90;999.90;;;;;;;;;;4916212;29;20689;-74
2023/06/15 00:39:35;;;;;;;1999.90;999.90;;;;;;;;;;4915847;29;20842;-73
2023/06/15 00:42:20;;;;;;;1999.90;999.90;;;;;;;;;;4915920;29;20217;-73
2023/06/15 00:45:06;;;;;;;1999.90;999.90;;;;;;;;;;4913836;29;20987;-74
2023/06/15 00:47:51;;;;;;;1999.90;999.90;;;;;;;;;;4916042;29;20286;-73
2023/06/15 00:50:38;;;;;;;1999.90;999.90;;;;;;;;;;4915580;29;20245;-73
2023/06/15 00:53:23;;;;;;;1999.90;999.90;;;;;;;;;;4915508;29;20220;-73
2023/06/15 00:56:09;;;;;;;1999.90;999.90;;;;;;;;;;4914749;29;20590;-73
2023/06/15 00:58:54;;;;;;;1999.90;999.90;;;;;;;;;;4915677;29;20375;-74
2023/06/15 01:01:41;;;;;;;1999.90;999.90;;;;;;;;;;4916652;29;20224;-74
2023/06/15 01:04:26;;;;;;;1999.90;999.90;;;;;;;;;;4925416;29;20540;-74
2023/06/15 01:07:12;;;;;;;1999.90;999.90;;;;;;;;;;4918157;29;20214;-71
2023/06/15 01:09:57;;;;;;;1999.90;999.90;;;;;;;;;;4914931;29;20596;-72
2023/06/15 01:12:45;;;;;;;1999.90;999.90;;;;;;;;;;4924931;29;20707;-73
2023/06/15 01:15:30;;;;;;;1999.90;999.90;;;;;;;;;;4920235;29;20794;-73
2023/06/15 01:18:20;;;;;;;1999.90;999.90;;;;;;;;;;4920805;29;20221;-73
2023/06/15 01:21:06;;;;;;;1999.90;999.90;;;;;;;;;;4915188;29;20229;-72
2023/06/15 01:24:02;;;;;;;1999.90;999.90;;;;;;;;;;4917855;29;20229;-73
2023/06/15 01:26:52;;;;;;;1999.90;999.90;;;;;;;;;;4922270;29;20230;-73
2023/06/15 01:29:41;;;;;;;1999.90;999.90;;;;;;;;;;4923161;29;20646;-73
2023/06/15 01:32:26;;;;;;;1999.90;999.90;;;;;;;;;;4930416;29;20284;-73
2023/06/15 01:35:11;;;;;;;1999.90;999.90;;;;;;;;;;4933891;29;20432;-74
2023/06/15 01:37:56;;;;;;;1999.90;999.90;;;;;;;;;;4934448;29;20209;-72
2023/06/15 01:40:43;;;;;;;1999.90;999.90;;;;;;;;;;4926109;29;20282;-71
2023/06/15 01:43:30;;;;;;;1999.90;999.90;;;;;;;;;;4930157;29;20232;-72
2023/06/15 01:46:15;;;;;;;1999.90;999.90;;;;;;;;;;4928252;29;20218;-74
2023/06/15 01:49:01;;;;;;;1999.90;999.90;;;;;;;;;;4916120;29;20241;-72
2023/06/15 01:51:46;;;;;;;1999.90;999.90;;;;;;;;;;4928799;29;20480;-74
2023/06/15 01:54:31;;;;;;;1999.90;999.90;;;;;;;;;;4934416;29;20280;-72
2023/06/15 01:57:19;;;;;;;1999.90;999.90;;;;;;;;;;4925588;29;20233;-72
2023/06/15 02:00:07;;;;;;;1999.90;999.90;;;;;;;;;;4901726;29;20988;-72
2023/06/15 02:02:53;;;;;;;1999.90;999.90;;;;;;;;;;4928423;29;20217;-72
2023/06/15 02:05:39;;;;;;;1999.90;999.90;;;;;;;;;;4925306;29;20218;-72
2023/06/15 02:08:24;;;;;;;1999.90;999.90;;;;;;;;;;4926115;29;20380;-74
2023/06/15 02:11:09;;;;;;;1999.90;999.90;;;;;;;;;;4915816;29;20221;-75
2023/06/15 02:13:54;;;;;;;1999.90;999.90;;;;;;;;;;4929731;29;20209;-71
2023/06/15 02:16:40;;;;;;;1999.90;999.90;;;;;;;;;;4926982;29;20598;-75
2023/06/15 02:19:25;;;;;;;1999.90;999.90;;;;;;;;;;4935965;29;20225;-71
2023/06/15 02:22:10;;;;;;;1999.90;999.90;;;;;;;;;;4919923;29;20328;-72
2023/06/15 02:24:55;;;;;;;1999.90;999.90;;;;;;;;;;4922735;29;20599;-72
2023/06/15 02:27:40;;;;;;;1999.90;999.90;;;;;;;;;;4929580;29;20218;-72
2023/06/15 02:30:25;;;;;;;1999.90;999.90;;;;;;;;;;4932255;29;20737;-72
2023/06/15 02:33:12;;;;;;;1999.90;999.90;;;;;;;;;;4922323;29;20785;-72
2023/06/15 02:35:57;;;;;;;1999.90;999.90;;;;;;;;;;4921530;29;20311;-73
2023/06/15 02:38:42;;;;;;;1999.90;999.90;;;;;;;;;;4924407;29;20233;-73
2023/06/15 02:41:27;;;;;;;1999.90;999.90;;;;;;;;;;4927871;29;20582;-74
2023/06/15 02:44:12;;;;;;;1999.90;999.90;;;;;;;;;;4917340;29;20229;-74
2023/06/15 02:46:57;;;;;;;1999.90;999.90;;;;;;;;;;4925633;29;20673;-72
2023/06/15 02:49:43;;;;;;;1999.90;999.90;;;;;;;;;;4930958;29;20249;-74
2023/06/15 02:52:30;;;;;;;1999.90;999.90;;;;;;;;;;4921478;29;20214;-74
2023/06/15 02:55:15;;;;;;;1999.90;999.90;;;;;;;;;;4903948;29;20294;-70
2023/06/15 02:58:00;;;;;;;1999.90;999.90;;;;;;;;;;4924977;29;20218;-72
2023/06/15 03:00:48;;;;;;;1999.90;999.90;;;;;;;;;;4930354;29;20245;-72
2023/06/15 03:03:33;;;;;;;1999.90;999.90;;;;;;;;;;4933008;29;20209;-72
2023/06/15 03:06:20;;;;;;;1999.90;999.90;;;;;;;;;;4927264;29;20233;-74
2023/06/15 03:09:07;;;;;;;1999.90;999.90;;;;;;;;;;4905279;29;20248;-73
2023/06/15 03:11:52;;;;;;;1999.90;999.90;;;;;;;;;;4917145;29;20218;-72
2023/06/15 03:14:37;;;;;;;1999.90;999.90;;;;;;;;;;4928732;29;20293;-73
2023/06/15 03:17:24;;;;;;;1999.90;999.90;;;;;;;;;;4936105;29;20269;-71
2023/06/15 03:20:11;;;;;;;1999.90;999.90;;;;;;;;;;4936235;29;20590;-72
2023/06/15 03:22:57;;;;;;;1999.90;999.90;;;;;;;;;;4936175;29;20281;-71
2023/06/15 03:25:42;;;;;;;1999.90;999.90;;;;;;;;;;4936241;29;20233;-73
2023/06/15 03:28:27;;;;;;;1999.90;999.90;;;;;;;;;;4930895;29;20206;-72
2023/06/15 03:31:16;;;;;;;1999.90;999.90;;;;;;;;;;4917329;29;20343;-72
2023/06/15 03:34:01;;;;;;;1999.90;999.90;;;;;;;;;;4917091;29;20355;-72
2023/06/15 03:36:46;;;;;;;1999.90;999.90;;;;;;;;;;4917319;29;20210;-73
2023/06/15 03:39:33;;;;;;;1999.90;999.90;;;;;;;;;;4917122;29;20230;-72
2023/06/15 03:42:18;;;;;;;1999.90;999.90;;;;;;;;;;4917132;29;20314;-73
2023/06/15 03:45:03;;;;;;;1999.90;999.90;;;;;;;;;;4916897;29;20229;-72
2023/06/15 03:47:48;;;;;;;1999.90;999.90;;;;;;;;;;4917190;29;20217;-73
2023/06/15 03:50:33;;;;;;;1999.90;999.90;;;;;;;;;;4916829;29;20236;-73
2023/06/15 03:53:18;;;;;;;1999.90;999.90;;;;;;;;;;4916899;29;20210;-72
2023/06/15 03:56:05;;;;;;;1999.90;999.90;;;;;;;;;;4916240;29;20210;-72
2023/06/15 03:58:50;;;;;;;1999.90;999.90;;;;;;;;;;4916675;29;20282;-72
2023/06/15 04:01:35;;;;;;;1999.90;999.90;;;;;;;;;;4916416;29;20221;-72
2023/06/15 04:04:19;;;;;;;1999.90;999.90;;;;;;;;;;4916313;29;20375;-72
2023/06/15 04:07:08;;;;;;;1999.90;999.90;;;;;;;;;;4916132;29;20213;-72
2023/06/15 04:09:53;;;;;;;1999.90;999.90;;;;;;;;;;4925920;29;20741;-72
2023/06/15 04:12:40;;;;;;;1999.90;999.90;;;;;;;;;;4920032;29;20222;-71
2023/06/15 04:15:24;;;;;;;1999.90;999.90;;;;;;;;;;4916482;29;20770;-72
2023/06/15 04:18:09;;;;;;;1999.90;999.90;;;;;;;;;;4924183;29;20641;-72
2023/06/15 04:20:55;;;;;;;1999.90;999.90;;;;;;;;;;4916267;29;20217;-71
2023/06/15 04:23:43;;;;;;;1999.90;999.90;;;;;;;;;;4915686;29;20467;-71
2023/06/15 04:26:28;;;;;;;1999.90;999.90;;;;;;;;;;4916274;29;20214;-72
2023/06/15 04:29:18;;;;;;;1999.90;999.90;;;;;;;;;;4916120;29;20250;-73
2023/06/15 04:32:05;;;;;;;1999.90;999.90;;;;;;;;;;4915719;29;20218;-72
2023/06/15 04:34:52;;;;;;;1999.90;999.90;;;;;;;;;;4916137;29;20298;-72
2023/06/15 04:37:39;;;;;;;1999.90;999.90;;;;;;;;;;4923336;29;20345;-72
2023/06/15 04:40:24;;;;;;;1999.90;999.90;;;;;;;;;;4915620;29;20239;-72
2023/06/15 04:43:09;;;;;;;1999.90;999.90;;;;;;;;;;4919619;29;20291;-72
2023/06/15 04:45:55;;;;;;;1999.90;999.90;;;;;;;;;;4934850;29;20284;-74
2023/06/15 04:48:43;;;;;;;1999.90;999.90;;;;;;;;;;4934795;29;20291;-74
2023/06/15 04:51:30;;;;;;;1999.90;999.90;;;;;;;;;;4935005;29;20209;-72
2023/06/15 04:54:15;;;;;;;1999.90;999.90;;;;;;;;;;4935019;29;20209;-73
2023/06/15 04:57:00;;;;;;;1999.90;999.90;;;;;;;;;;4934849;29;20205;-72
2023/06/15 04:59:45;;;;;;;1999.90;999.90;;;;;;;;;;4934532;29;20418;-71
2023/06/15 05:02:31;;;;;;;1999.90;999.90;;;;;;;;;;4934751;29;20575;-72
2023/06/15 05:05:17;;;;;;;1999.90;999.90;;;;;;;;;;4935084;29;20225;-72
2023/06/15 05:08:02;;;;;;;1999.90;999.90;;;;;;;;;;4934572;29;20713;-72
2023/06/15 05:10:48;;;;;;;1999.90;999.90;;;;;;;;;;4917280;29;20218;-72
2023/06/15 05:13:33;;;;;;;1999.90;999.90;;;;;;;;;;4906083;29;20230;-72
2023/06/15 05:16:17;;;;;;;1999.90;999.90;;;;;;;;;;4905778;29;20343;-74
2023/06/15 05:19:04;;;;;;;1999.90;999.90;;;;;;;;;;4920571;29;20808;-72
2023/06/15 05:21:50;;;;;;;1999.90;999.90;;;;;;;;;;4915178;29;20258;-69
2023/06/15 05:24:35;;;;;;;1999.90;999.90;;;;;;;;;;4905799;29;20237;-69
2023/06/15 05:27:20;;;;;;;1999.90;999.90;;;;;;;;;;4922995;29;20203;-72
2023/06/15 05:30:07;;;;;;;1999.90;999.90;;;;;;;;;;4919592;29;20233;-74
2023/06/15 05:32:52;;;;;;;1999.90;999.90;;;;;;;;;;4929738;29;20212;-73
2023/06/15 05:35:39;;;;;;;1999.90;999.90;;;;;;;;;;4923469;29;20209;-72
2023/06/15 05:38:23;;;;;;;1999.90;999.90;;;;;;;;;;4915165;29;20209;-72
2023/06/15 05:41:08;;;;;;;1999.90;999.90;;;;;;;;;;4918303;29;20611;-71
2023/06/15 05:43:53;;;;;;;1999.90;999.90;;;;;;;;;;4911866;29;20218;-73
2023/06/15 05:46:38;;;;;;;1999.90;999.90;;;;;;;;;;4909843;29;20210;-73
2023/06/15 05:49:23;;;;;;;1999.90;999.90;;;;;;;;;;4912223;29;20250;-72
2023/06/15 05:52:09;;;;;;;1999.90;999.90;;;;;;;;;;4909267;29;20447;-71
2023/06/15 05:54:54;;;;;;;1999.90;999.90;;;;;;;;;;4914033;29;20271;-73
2023/06/15 05:57:39;;;;;;;1999.90;999.90;;;;;;;;;;4897175;29;20209;-73
2023/06/15 06:00:25;;;;;;;1999.90;999.90;;;;;;;;;;4896510;29;20246;-73
2023/06/15 06:03:10;;;;;;;1999.90;999.90;;;;;;;;;;4896561;29;20214;-73
2023/06/15 06:05:55;;;;;;;1999.90;999.90;;;;;;;;;;4896349;29;20859;-73
2023/06/15 06:08:41;;;;;;;1999.90;999.90;;;;;;;;;;4905356;29;20767;-73
2023/06/15 06:11:27;;;;;;;1999.90;999.90;;;;;;;;;;4905812;29;20423;-69
2023/06/15 06:14:12;;;;;;;1999.90;999.90;;;;;;;;;;4896621;29;20344;-73
2023/06/15 06:16:57;;;;;;;1999.90;999.90;;;;;;;;;;4896709;29;20226;-73
2023/06/15 06:19:42;;;;;;;1999.90;999.90;;;;;;;;;;4895929;29;20238;-72
2023/06/15 06:22:27;;;;;;;1999.90;999.90;;;;;;;;;;4901051;29;20230;-72
2023/06/15 06:25:13;;;;;;;1999.90;999.90;;;;;;;;;;4910832;29;20717;-72
2023/06/15 06:27:58;;;;;;;1999.90;999.90;;;;;;;;;;4899917;29;20214;-72
2023/06/15 06:30:43;;;;;;;1999.90;999.90;;;;;;;;;;4914277;29;20229;-72
2023/06/15 06:33:28;;;;;;;1999.90;999.90;;;;;;;;;;4917195;29;20315;-72
2023/06/15 06:36:13;;;;;;;1999.90;999.90;;;;;;;;;;4917250;29;20213;-73
2023/06/15 06:38:58;;;;;;;1999.90;999.90;;;;;;;;;;4915602;29;20232;-72
2023/06/15 06:41:45;;;;;;;1999.90;999.90;;;;;;;;;;4899448;29;20236;-73
2023/06/15 06:44:30;;;;;;;1999.90;999.90;;;;;;;;;;4899536;29;20755;-72
2023/06/15 06:47:15;;;;;;;1999.90;999.90;;;;;;;;;;4906822;29;20233;-73
2023/06/15 06:50:00;;;;;;;1999.90;999.90;;;;;;;;;;4917999;29;20271;-72
2023/06/15 06:52:45;;;;;;;1999.90;999.90;;;;;;;;;;4918571;29;20213;-72
2023/06/15 06:55:30;;;;;;;1999.90;999.90;;;;;;;;;;4920376;29;20205;-71
2023/06/15 06:58:16;;;;;;;1999.90;999.90;;;;;;;;;;4916867;29;20216;-72
2023/06/15 07:01:02;;;;;;;1999.90;999.90;;;;;;;;;;4918268;29;20511;-72
2023/06/15 07:03:47;;;;;;;1999.90;999.90;;;;;;;;;;4919842;29;20242;-71
2023/06/15 07:06:33;;;;;;;1999.90;999.90;;;;;;;;;;4917136;29;20238;-73
2023/06/15 07:09:19;;;;;;;1999.90;999.90;;;;;;;;;;4914724;29;20236;-71
2023/06/15 07:12:04;;;;;;;1999.90;999.90;;;;;;;;;;4913792;29;20349;-71
2023/06/15 07:14:50;;;;;;;1999.90;999.90;;;;;;;;;;4915144;29;20592;-71
2023/06/15 07:17:35;;;;;;;1999.90;999.90;;;;;;;;;;4921448;29;20210;-72
2023/06/15 07:20:21;;;;;;;1999.90;999.90;;;;;;;;;;4929560;29;20725;-73
2023/06/15 07:23:05;;;;;;;1999.90;999.90;;;;;;;;;;4931054;29;20213;-72
2023/06/15 07:25:51;;;;;;;1999.90;999.90;;;;;;;;;;4922180;29;20221;-72
2023/06/15 07:28:35;;;;;;;1999.90;999.90;;;;;;;;;;4927856;29;20214;-72
2023/06/15 07:31:22;;;;;;;1999.90;999.90;;;;;;;;;;4933262;29;20209;-72
2023/06/15 07:34:07;;;;;;;1999.90;999.90;;;;;;;;;;4921720;29;20218;-72
2023/06/15 07:36:52;;;;;;;1999.90;999.90;;;;;;;;;;4922868;29;20691;-72
2023/06/15 07:39:37;;;;;;;1999.90;999.90;;;;;;;;;;4922388;29;20662;-74
2023/06/15 07:42:22;;;;;;;1999.90;999.90;;;;;;;;;;4917577;29;20205;-73
2023/06/15 07:45:08;;;;;;;1999.90;999.90;;;;;;;;;;4926153;29;20225;-73
2023/06/15 07:47:54;;;;;;;1999.90;999.90;;;;;;;;;;4923391;29;20707;-72
2023/06/15 07:50:39;;;;;;;1999.90;999.90;;;;;;;;;;4932573;29;20234;-72
2023/06/15 07:53:24;;;;;;;1999.90;999.90;;;;;;;;;;4920364;29;20453;-74
2023/06/15 07:56:09;;;;;;;1999.90;999.90;;;;;;;;;;4917392;29;20293;-72
2023/06/15 07:58:54;;;;;;;1999.90;999.90;;;;;;;;;;4915970;29;20230;-72
2023/06/15 08:01:39;;;;;;;1999.90;999.90;;;;;;;;;;4916507;29;20274;-73
2023/06/15 08:04:25;;;;;;;1999.90;999.90;;;;;;;;;;4923610;29;20295;-72
2023/06/15 08:07:10;;;;;;;1999.90;999.90;;;;;;;;;;4934222;29;20382;-72
2023/06/15 08:09:56;;;;;;;1999.90;999.90;;;;;;;;;;4935680;29;20293;-72
2023/06/15 08:12:41;;;;;;;1999.90;999.90;;;;;;;;;;4930493;29;20311;-73
2023/06/15 08:15:26;;;;;;;1999.90;999.90;;;;;;;;;;4917512;29;20695;-71
2023/06/15 08:18:11;;;;;;;1999.90;999.90;;;;;;;;;;4916536;29;20213;-72
2023/06/15 08:20:57;;;;;;;1999.90;999.90;;;;;;;;;;4912336;29;20222;-72
2023/06/15 08:23:42;;;;;;;1999.90;999.90;;;;;;;;;;4915398;29;20345;-71
2023/06/15 08:26:27;;;;;;;1999.90;999.90;;;;;;;;;;4915913;29;20447;-69
2023/06/15 08:29:12;;;;;;;1999.90;999.90;;;;;;;;;;4934044;29;20598;-71
2023/06/15 08:31:57;;;;;;;1999.90;999.90;;;;;;;;;;4935132;29;20257;-69
2023/06/15 08:34:43;;;;;;;1999.90;999.90;;;;;;;;;;4921376;29;20265;-72
2023/06/15 08:37:30;;;;;;;1999.90;999.90;;;;;;;;;;4921408;29;20750;-72
2023/06/15 08:40:15;;;;;;;1999.90;999.90;;;;;;;;;;4934954;29;20221;-72
2023/06/15 08:43:00;;;;;;;1999.90;999.90;;;;;;;;;;4930149;29;20226;-72
2023/06/15 08:45:48;;;;;;;1999.90;999.90;;;;;;;;;;4925795;29;20433;-73
2023/06/15 08:48:33;;;;;;;1999.90;999.90;;;;;;;;;;4935147;29;20229;-71
2023/06/15 08:51:18;;;;;;;1999.90;999.90;;;;;;;;;;4927877;29;20238;-72
2023/06/15 08:54:06;;;;;;;1999.90;999.90;;;;;;;;;;4932242;29;20221;-72
2023/06/15 08:56:51;;;;;;;1999.90;999.90;;;;;;;;;;4935164;29;20579;-72
2023/06/15 08:59:36;;;;;;;1999.90;999.90;;;;;;;;;;4926490;29;20229;-71
2023/06/15 09:02:22;;;;;;;1999.90;999.90;;;;;;;;;;4923128;29;20214;-72
2023/06/15 09:05:07;;;;;;;1999.90;999.90;;;;;;;;;;4932426;29;20296;-72
2023/06/15 09:07:52;;;;;;;1999.90;999.90;;;;;;;;;;4921391;29;20210;-72
2023/06/15 09:10:41;;;;;;;1999.90;999.90;;;;;;;;;;4922662;29;20354;-73
2023/06/15 09:13:30;;;;;;;1999.90;999.90;;;;;;;;;;4924778;29;20213;-72
2023/06/15 09:16:16;;;;;;;1999.90;999.90;;;;;;;;;;4914953;29;20579;-72
2023/06/15 09:19:01;;;;;;;1999.90;999.90;;;;;;;;;;4918888;29;20278;-71
2023/06/15 09:21:49;;;;;;;1999.90;999.90;;;;;;;;;;4915937;29;20202;-73
2023/06/15 09:24:39;;;;;;;1999.90;999.90;;;;;;;;;;4914082;29;20346;-72
2023/06/15 09:27:25;;;;;;;1999.90;999.90;;;;;;;;;;4915122;29;20225;-73
2023/06/15 09:30:13;;;;;;;1999.90;999.90;;;;;;;;;;4914261;29;20244;-70
2023/06/15 09:32:58;;;;;;;1999.90;999.90;;;;;;;;;;4915367;29;20223;-72
2023/06/15 09:35:57;;;;;;;1999.90;999.90;;;;;;;;;;4908570;29;20967;-72
2023/06/15 09:38:44;;;;;;;1999.90;999.90;;;;;;;;;;4915131;29;20234;-71
2023/06/15 09:41:28;;;;;;;1999.90;999.90;;;;;;;;;;4913692;29;20682;-73
2023/06/15 09:44:15;;;;;;;1999.90;999.90;;;;;;;;;;4923691;29;20221;-73
2023/06/15 09:47:01;;;;;;;1999.90;999.90;;;;;;;;;;4914760;29;20228;-73
2023/06/15 09:49:48;;;;;;;1999.90;999.90;;;;;;;;;;4920246;29;20245;-73
2023/06/15 09:52:36;;;;;;;1999.90;999.90;;;;;;;;;;4908413;29;20586;-72
2023/06/15 09:55:21;;;;;;;1999.90;999.90;;;;;;;;;;4920105;29;20220;-72
2023/06/15 09:58:05;;;;;;;1999.90;999.90;;;;;;;;;;4926970;29;20205;-73
2023/06/15 10:00:53;;;;;;;1999.90;999.90;;;;;;;;;;4911154;29;20210;-72
2023/06/15 10:03:38;;;;;;;1999.90;999.90;;;;;;;;;;4923104;29;20659;-72
2023/06/15 10:06:25;;;;;;;1999.90;999.90;;;;;;;;;;4918477;29;20965;-72
2023/06/15 10:09:11;;;;;;;1999.90;999.90;;;;;;;;;;4917832;29;20742;-74
2023/06/15 10:11:58;;;;;;;1999.90;999.90;;;;;;;;;;4911292;29;20853;-72
2023/06/15 10:14:49;;;;;;;1999.90;999.90;;;;;;;;;;4918543;29;20209;-73
2023/06/15 10:17:37;;;;;;;1999.90;999.90;;;;;;;;;;4913031;29;20217;-72
2023/06/15 10:20:23;;;;;;;1999.90;999.90;;;;;;;;;;4899767;29;20249;-73
2023/06/15 10:23:11;;;;;;;1999.90;999.90;;;;;;;;;;4899711;29;20222;-72
2023/06/15 10:25:57;;;;;;;1999.90;999.90;;;;;;;;;;4914311;29;20600;-72
2023/06/15 10:28:44;;;;;;;1999.90;999.90;;;;;;;;;;4900253;29;20520;-72
2023/06/15 10:31:32;;;;;;;1999.90;999.90;;;;;;;;;;4901158;29;20793;-73
2023/06/15 10:34:23;;;;;;;1999.90;999.90;;;;;;;;;;4914335;29;20215;-72
2023/06/15 10:37:11;;;;;;;1999.90;999.90;;;;;;;;;;4917591;29;20210;-71
2023/06/15 10:40:00;;;;;;;1999.90;999.90;;;;;;;;;;4917793;29;20313;-72
2023/06/15 10:42:45;;;;;;;1999.90;999.90;;;;;;;;;;4916794;29;20210;-73
2023/06/15 10:45:31;;;;;;;1999.90;999.90;;;;;;;;;;4916855;29;20298;-74
2023/06/15 10:48:23;;;;;;;1999.90;999.90;;;;;;;;;;4914319;29;20210;-73
2023/06/15 10:51:10;;;;;;;1999.90;999.90;;;;;;;;;;4899332;29;20210;-73
2023/06/15 10:53:55;;;;;;;1999.90;999.90;;;;;;;;;;4899274;29;20574;-74
2023/06/15 10:56:48;;;;;;;1999.90;999.90;;;;;;;;;;4913616;29;20408;-72
2023/06/15 10:59:41;;;;;;;1999.90;999.90;;;;;;;;;;4910217;29;20757;-74
2023/06/15 11:02:44;;;;;;;1999.90;999.90;;;;;;;;;;4906286;29;20350;-74
2023/06/15 11:05:41;;;;;;;1999.90;999.90;;;;;;;;;;4914120;29;20276;-73
2023/06/15 11:08:30;;;;;;;1999.90;999.90;;;;;;;;;;4915001;29;20263;-72
2023/06/15 11:11:16;;;;;;;1999.90;999.90;;;;;;;;;;4918718;29;20222;-73
2023/06/15 11:14:02;;;;;;;1999.90;999.90;;;;;;;;;;4911095;29;20585;-72
2023/06/15 11:17:01;;;;;;;1999.90;999.90;;;;;;;;;;4924941;29;20438;-72
2023/06/15 11:19:46;;;;;;;1999.90;999.90;;;;;;;;;;4923161;29;20242;-72
2023/06/15 11:22:31;;;;;;;1999.90;999.90;;;;;;;;;;4927296;29;20338;-72
2023/06/15 11:25:17;;;;;;;1999.90;999.90;;;;;;;;;;4917645;29;20218;-72
2023/06/15 11:28:03;;;;;;;1999.90;999.90;;;;;;;;;;4928323;29;20233;-72
2023/06/15 11:30:50;;;;;;;1999.90;999.90;;;;;;;;;;4925154;29;20216;-71
2023/06/15 11:33:36;;;;;;;1999.90;999.90;;;;;;;;;;4925884;29;20218;-72
2023/06/15 11:36:21;;;;;;;1999.90;999.90;;;;;;;;;;4919805;29;20250;-71
2023/06/15 11:39:07;;;;;;;1999.90;999.90;;;;;;;;;;4913096;29;20357;-71
2023/06/15 11:41:54;;;;;;;1999.90;999.90;;;;;;;;;;4916803;29;20214;-71
2023/06/15 11:44:41;;;;;;;1999.90;999.90;;;;;;;;;;4922141;29;20210;-72
2023/06/15 11:47:25;;;;;;;1999.90;999.90;;;;;;;;;;4925265;29;20548;-72
2023/06/15 11:50:10;;;;;;;1999.90;999.90;;;;;;;;;;4924861;29;20391;-73
2023/06/15 11:52:55;;;;;;;1999.90;999.90;;;;;;;;;;4919065;29;20583;-72
2023/06/15 11:55:43;;;;;;;1999.90;999.90;;;;;;;;;;4919221;29;20823;-71
2023/06/15 11:58:30;;;;;;;1999.90;999.90;;;;;;;;;;4924105;29;20215;-71
2023/06/15 12:01:16;;;;;;;1999.90;999.90;;;;;;;;;;4919828;29;20218;-70
2023/06/15 12:04:01;;;;;;;1999.90;999.90;;;;;;;;;;4920800;29;20577;-72
2023/06/15 12:06:47;;;;;;;1999.90;999.90;;;;;;;;;;4915219;29;21046;-72
2023/06/15 12:09:32;;;;;;;1999.90;999.90;;;;;;;;;;4924825;29;20594;-71
2023/06/15 12:12:30;;;;;;;1999.90;999.90;;;;;;;;;;4919824;29;20218;-72
2023/06/15 12:15:18;;;;;;;1999.90;999.90;;;;;;;;;;4917856;29;20584;-72
2023/06/15 12:18:07;;;;;;;1999.90;999.90;;;;;;;;;;4919018;29;20210;-73
2023/06/15 12:20:52;;;;;;;1999.90;999.90;;;;;;;;;;4904775;29;20207;-71
2023/06/15 12:23:37;;;;;;;1999.90;999.90;;;;;;;;;;4903074;29;20231;-71
2023/06/15 12:26:22;;;;;;;1999.90;999.90;;;;;;;;;;4912346;29;20214;-72
2023/06/15 12:29:13;;;;;;;1999.90;999.90;;;;;;;;;;4913918;29;20249;-70
2023/06/15 12:32:00;;;;;;;1999.90;999.90;;;;;;;;;;4913541;29;20280;-71
2023/06/15 12:34:46;;;;;;;1999.90;999.90;;;;;;;;;;4923788;29;20702;-72
2023/06/15 12:37:31;;;;;;;1999.90;999.90;;;;;;;;;;4922705;29;20218;-72
2023/06/15 12:40:17;;;;;;;1999.90;999.90;;;;;;;;;;4929294;29;20418;-71
2023/06/15 12:43:03;;;;;;;1999.90;999.90;;;;;;;;;;4922080;29;20715;-72
2023/06/15 12:45:48;;;;;;;1999.90;999.90;;;;;;;;;;4919947;29;20700;-71
2023/06/15 12:48:34;;;;;;;1999.90;999.90;;;;;;;;;;4914958;29;20729;-72
2023/06/15 12:51:19;;;;;;;1999.90;999.90;;;;;;;;;;4906107;29;20222;-72
2023/06/15 12:54:04;;;;;;;1999.90;999.90;;;;;;;;;;4925760;29;20221;-70
2023/06/15 12:56:50;;;;;;;1999.90;999.90;;;;;;;;;;4911159;29;20274;-72
2023/06/15 12:59:35;;;;;;;1999.90;999.90;;;;;;;;;;4916946;29;20954;-72
2023/06/15 13:02:20;;;;;;;1999.90;999.90;;;;;;;;;;4926729;29;20216;-72
2023/06/15 13:05:07;;;;;;;1999.90;999.90;;;;;;;;;;4930427;29;20391;-72
2023/06/15 13:07:52;;;;;;;1999.90;999.90;;;;;;;;;;4912152;29;20346;-72
2023/06/15 13:10:37;;;;;;;1999.90;999.90;;;;;;;;;;4915173;29;20706;-73
2023/06/15 13:13:22;;;;;;;1999.90;999.90;;;;;;;;;;4920101;29;20221;-72
2023/06/15 13:16:07;;;;;;;1999.90;999.90;;;;;;;;;;4914703;29;20226;-69
2023/06/15 13:18:52;;;;;;;1999.90;999.90;;;;;;;;;;4909480;29;20234;-73
2023/06/15 13:21:39;;;;;;;1999.90;999.90;;;;;;;;;;4911768;29;20289;-71
2023/06/15 13:24:25;;;;;;;1999.90;999.90;;;;;;;;;;4905434;29;20211;-71
2023/06/15 13:27:11;;;;;;;1999.90;999.90;;;;;;;;;;4905401;29;20673;-71
2023/06/15 13:29:56;;;;;;;1999.90;999.90;;;;;;;;;;4915463;29;20232;-69
2023/06/15 13:32:42;;;;;;;1999.90;999.90;;;;;;;;;;4909299;29;20281;-72
2023/06/15 13:35:27;;;;;;;1999.90;999.90;;;;;;;;;;4918753;29;20222;-71
2023/06/15 13:38:14;;;;;;;1999.90;999.90;;;;;;;;;;4930527;29;20209;-72
2023/06/15 13:40:58;;;;;;;1999.90;999.90;;;;;;;;;;4921614;29;20220;-73
2023/06/15 13:43:43;;;;;;;1999.90;999.90;;;;;;;;;;4927066;29;20308;-72
2023/06/15 13:46:30;;;;;;;1999.90;999.90;;;;;;;;;;4925089;29;20213;-71
2023/06/15 13:49:15;;;;;;;1999.90;999.90;;;;;;;;;;4919070;29;20245;-72
2023/06/15 13:52:00;;;;;;;1999.90;999.90;;;;;;;;;;4909856;29;20217;-71
2023/06/15 13:54:46;;;;;;;1999.90;999.90;;;;;;;;;;4908361;29;20829;-72
2023/06/15 13:57:31;;;;;;;1999.90;999.90;;;;;;;;;;4913600;29;20401;-72
2023/06/15 14:00:17;;;;;;;1999.90;999.90;;;;;;;;;;4909709;29;20333;-72
2023/06/15 14:03:04;;;;;;;1999.90;999.90;;;;;;;;;;4907929;29;20218;-72
2023/06/15 14:05:50;;;;;;;1999.90;999.90;;;;;;;;;;4908799;29;20285;-72
2023/06/15 14:08:35;;;;;;;1999.90;999.90;;;;;;;;;;4919116;29;20698;-72
2023/06/15 14:11:21;;;;;;;1999.90;999.90;;;;;;;;;;4926063;29;20313;-70
2023/06/15 14:14:06;;;;;;;1999.90;999.90;;;;;;;;;;4926139;29;20616;-72
2023/06/15 14:16:52;;;;;;;1999.90;999.90;;;;;;;;;;4914403;29;20209;-72
2023/06/15 14:19:37;;;;;;;1999.90;999.90;;;;;;;;;;4924629;29;20261;-72
2023/06/15 14:22:22;;;;;;;1999.90;999.90;;;;;;;;;;4904534;29;20448;-74
2023/06/15 14:25:08;;;;;;;1999.90;999.90;;;;;;;;;;4911464;29;20592;-73
2023/06/15 14:27:54;;;;;;;1999.90;999.90;;;;;;;;;;4900371;29;20263;-74
2023/06/15 14:30:39;;;;;;;1999.90;999.90;;;;;;;;;;4917283;29;20257;-74
2023/06/15 14:33:24;;;;;;;1999.90;999.90;;;;;;;;;;4902083;29;20636;-73
2023/06/15 14:36:09;;;;;;;1999.90;999.90;;;;;;;;;;4912240;29;20217;-74
2023/06/15 14:38:54;;;;;;;1999.90;999.90;;;;;;;;;;4909836;29;20229;-73
2023/06/15 14:41:39;;;;;;;1999.90;999.90;;;;;;;;;;4906404;29;20218;-73
2023/06/15 14:44:25;;;;;;;1999.90;999.90;;;;;;;;;;4913261;29;20412;-73
2023/06/15 14:47:10;;;;;;;1999.90;999.90;;;;;;;;;;4914409;29;20739;-73
2023/06/15 14:49:55;;;;;;;1999.90;999.90;;;;;;;;;;4907834;29;20236;-73
2023/06/15 14:52:40;;;;;;;1999.90;999.90;;;;;;;;;;4916477;29;20573;-73
2023/06/15 14:55:25;;;;;;;1999.90;999.90;;;;;;;;;;4923799;29;20311;-73
2023/06/15 14:58:10;;;;;;;1999.90;999.90;;;;;;;;;;4909479;29;20210;-73
2023/06/15 15:00:56;;;;;;;1999.90;999.90;;;;;;;;;;4908148;29;20206;-73
2023/06/15 15:03:41;;;;;;;1999.90;999.90;;;;;;;;;;4916758;29;20602;-73
2023/06/15 15:06:26;;;;;;;1999.90;999.90;;;;;;;;;;4918718;29;20846;-74
2023/06/15 15:09:11;;;;;;;1999.90;999.90;;;;;;;;;;4919913;29;20237;-73
2023/06/15 15:11:56;;;;;;;1999.90;999.90;;;;;;;;;;4911353;29;20201;-72
2023/06/15 15:14:41;;;;;;;1999.90;999.90;;;;;;;;;;4919038;29;20225;-72
2023/06/15 15:17:27;;;;;;;1999.90;999.90;;;;;;;;;;4918948;29;20227;-74
2023/06/15 15:20:12;;;;;;;1999.90;999.90;;;;;;;;;;4923799;29;20256;-73
2023/06/15 15:22:57;;;;;;;1999.90;999.90;;;;;;;;;;4920284;29;20204;-73
2023/06/15 15:25:42;;;;;;;1999.90;999.90;;;;;;;;;;4924250;29;20270;-73